sensor_id;sensor_type;location;lat;lon;timestamp;P1;durP1;ratioP1;P2;durP2;ratioP2
75700;SDS011;64321;48.796;44.740;2022-11-15T00:01:58;0.95;;;0.25;;
75700;SDS011;64321;48.796;44.740;2022-11-15T00:04:42;2.33;;;0.57;;
75700;SDS011;64321;48.796;44.740;2022-11-15T00:07:29;1.58;;;0.50;;
75700;SDS011;64321;48.796;44.740;2022-11-15T00:10:13;1.75;;;0.40;;
75700;SDS011;64321;48.796;44.740;2022-11-15T00:12:58;1.85;;;0.73;;
75700;SDS011;64321;48.796;44.740;2022-11-15T00:15:42;3.05;;;0.65;;
75700;SDS011;64321;48.796;44.740;2022-11-15T00:18:27;1.08;;;0.45;;
75700;SDS011;64321;48.796;44.740;2022-11-15T00:21:11;2.33;;;0.65;;
75700;SDS011;64321;48.796;44.740;2022-11-15T00:23:56;1.45;;;0.43;;
75700;SDS011;64321;48.796;44.740;2022-11-15T00:26:40;2.15;;;0.55;;
75700;SDS011;64321;48.796;44.740;2022-11-15T00:29:25;1.45;;;0.43;;
75700;SDS011;64321;48.796;44.740;2022-11-15T00:32:09;4.18;;;0.55;;
75700;SDS011;64321;48.796;44.740;2022-11-15T00:34:54;2.05;;;0.50;;
75700;SDS011;64321;48.796;44.740;2022-11-15T00:37:38;1.65;;;0.50;;
75700;SDS011;64321;48.796;44.740;2022-11-15T00:40:22;1.98;;;0.47;;
75700;SDS011;64321;48.796;44.740;2022-11-15T00:43:07;2.35;;;0.47;;
75700;SDS011;64321;48.796;44.740;2022-11-15T00:45:51;1.48;;;0.55;;
75700;SDS011;64321;48.796;44.740;2022-11-15T00:48:36;1.23;;;0.63;;
75700;SDS011;64321;48.796;44.740;2022-11-15T00:51:20;1.17;;;0.35;;
75700;SDS011;64321;48.796;44.740;2022-11-15T00:54:04;1.85;;;0.73;;
75700;SDS011;64321;48.796;44.740;2022-11-15T00:56:48;2.30;;;0.52;;
75700;SDS011;64321;48.796;44.740;2022-11-15T00:59:33;1.70;;;0.95;;
75700;SDS011;64321;48.796;44.740;2022-11-15T01:02:17;2.05;;;0.47;;
75700;SDS011;64321;48.796;44.740;2022-11-15T01:05:01;1.83;;;0.55;;
75700;SDS011;64321;48.796;44.740;2022-11-15T01:07:46;1.10;;;0.70;;
75700;SDS011;64321;48.796;44.740;2022-11-15T01:10:30;2.22;;;0.85;;
75700;SDS011;64321;48.796;44.740;2022-11-15T01:13:14;0.77;;;0.43;;
75700;SDS011;64321;48.796;44.740;2022-11-15T01:16:04;3.03;;;0.55;;
75700;SDS011;64321;48.796;44.740;2022-11-15T01:18:49;2.17;;;0.77;;
75700;SDS011;64321;48.796;44.740;2022-11-15T01:21:33;4.28;;;0.73;;
75700;SDS011;64321;48.796;44.740;2022-11-15T01:24:17;4.15;;;0.70;;
75700;SDS011;64321;48.796;44.740;2022-11-15T01:27:01;4.40;;;0.73;;
75700;SDS011;64321;48.796;44.740;2022-11-15T01:29:46;2.10;;;0.43;;
75700;SDS011;64321;48.796;44.740;2022-11-15T01:32:30;4.25;;;0.73;;
75700;SDS011;64321;48.796;44.740;2022-11-15T01:35:14;3.17;;;0.63;;
75700;SDS011;64321;48.796;44.740;2022-11-15T01:37:59;1.80;;;1.05;;
75700;SDS011;64321;48.796;44.740;2022-11-15T01:40:43;3.95;;;1.13;;
75700;SDS011;64321;48.796;44.740;2022-11-15T01:43:29;3.03;;;0.52;;
75700;SDS011;64321;48.796;44.740;2022-11-15T01:51:50;2.13;;;0.43;;
75700;SDS011;64321;48.796;44.740;2022-11-15T01:54:35;3.40;;;0.77;;
75700;SDS011;64321;48.796;44.740;2022-11-15T01:57:19;2.67;;;1.00;;
75700;SDS011;64321;48.796;44.740;2022-11-15T02:00:04;2.42;;;0.85;;
75700;SDS011;64321;48.796;44.740;2022-11-15T02:02:49;3.38;;;0.95;;
75700;SDS011;64321;48.796;44.740;2022-11-15T02:05:34;3.67;;;1.70;;
75700;SDS011;64321;48.796;44.740;2022-11-15T02:08:20;4.82;;;1.27;;
75700;SDS011;64321;48.796;44.740;2022-11-15T02:11:07;1.83;;;0.65;;
75700;SDS011;64321;48.796;44.740;2022-11-15T02:13:51;4.78;;;1.33;;
75700;SDS011;64321;48.796;44.740;2022-11-15T02:17:02;4.45;;;1.20;;
75700;SDS011;64321;48.796;44.740;2022-11-15T02:34:43;4.35;;;1.08;;
75700;SDS011;64321;48.796;44.740;2022-11-15T02:40:26;2.30;;;0.73;;
75700;SDS011;64321;48.796;44.740;2022-11-15T02:43:12;1.80;;;0.68;;
75700;SDS011;64321;48.796;44.740;2022-11-15T02:46:18;1.98;;;0.52;;
75700;SDS011;64321;48.796;44.740;2022-11-15T02:49:05;2.08;;;0.75;;
75700;SDS011;64321;48.796;44.740;2022-11-15T02:51:49;2.75;;;0.68;;
75700;SDS011;64321;48.796;44.740;2022-11-15T02:54:35;4.78;;;0.60;;
75700;SDS011;64321;48.796;44.740;2022-11-15T02:57:19;0.93;;;0.40;;
75700;SDS011;64321;48.796;44.740;2022-11-15T03:03:08;0.45;;;0.25;;
75700;SDS011;64321;48.796;44.740;2022-11-15T03:05:58;3.55;;;0.50;;
75700;SDS011;64321;48.796;44.740;2022-11-15T03:11:45;3.58;;;0.73;;
75700;SDS011;64321;48.796;44.740;2022-11-15T03:14:38;1.38;;;0.43;;
75700;SDS011;64321;48.796;44.740;2022-11-15T03:20:09;1.15;;;0.45;;
75700;SDS011;64321;48.796;44.740;2022-11-15T03:22:54;1.67;;;0.45;;
75700;SDS011;64321;48.796;44.740;2022-11-15T03:25:43;2.90;;;0.52;;
75700;SDS011;64321;48.796;44.740;2022-11-15T03:29:12;1.40;;;0.50;;
75700;SDS011;64321;48.796;44.740;2022-11-15T03:31:37;1.13;;;0.40;;
75700;SDS011;64321;48.796;44.740;2022-11-15T03:37:15;2.78;;;0.65;;
75700;SDS011;64321;48.796;44.740;2022-11-15T03:40:01;2.63;;;0.75;;
75700;SDS011;64321;48.796;44.740;2022-11-15T03:42:48;2.63;;;0.73;;
75700;SDS011;64321;48.796;44.740;2022-11-15T03:45:35;5.47;;;0.43;;
75700;SDS011;64321;48.796;44.740;2022-11-15T03:48:21;3.05;;;0.80;;
75700;SDS011;64321;48.796;44.740;2022-11-15T03:53:51;1.23;;;0.50;;
75700;SDS011;64321;48.796;44.740;2022-11-15T03:56:36;0.88;;;0.30;;
75700;SDS011;64321;48.796;44.740;2022-11-15T03:59:20;0.82;;;0.25;;
75700;SDS011;64321;48.796;44.740;2022-11-15T04:02:04;2.45;;;0.43;;
75700;SDS011;64321;48.796;44.740;2022-11-15T04:04:49;5.40;;;0.52;;
75700;SDS011;64321;48.796;44.740;2022-11-15T04:07:33;2.13;;;0.70;;
75700;SDS011;64321;48.796;44.740;2022-11-15T04:10:17;3.30;;;0.60;;
75700;SDS011;64321;48.796;44.740;2022-11-15T04:13:02;4.18;;;0.40;;
75700;SDS011;64321;48.796;44.740;2022-11-15T04:15:46;1.98;;;0.60;;
75700;SDS011;64321;48.796;44.740;2022-11-15T04:18:31;3.55;;;0.63;;
75700;SDS011;64321;48.796;44.740;2022-11-15T04:21:15;2.60;;;0.98;;
75700;SDS011;64321;48.796;44.740;2022-11-15T04:24:18;1.63;;;0.57;;
75700;SDS011;64321;48.796;44.740;2022-11-15T04:27:02;1.67;;;0.52;;
75700;SDS011;64321;48.796;44.740;2022-11-15T04:29:46;2.63;;;0.65;;
75700;SDS011;64321;48.796;44.740;2022-11-15T04:32:31;1.52;;;0.43;;
75700;SDS011;64321;48.796;44.740;2022-11-15T04:35:15;2.25;;;0.73;;
75700;SDS011;64321;48.796;44.740;2022-11-15T04:38:00;7.10;;;1.00;;
75700;SDS011;64321;48.796;44.740;2022-11-15T04:40:44;6.97;;;0.80;;
75700;SDS011;64321;48.796;44.740;2022-11-15T04:43:29;1.50;;;0.52;;
75700;SDS011;64321;48.796;44.740;2022-11-15T04:46:13;3.00;;;0.65;;
75700;SDS011;64321;48.796;44.740;2022-11-15T04:48:58;2.65;;;0.73;;
75700;SDS011;64321;48.796;44.740;2022-11-15T04:51:42;3.03;;;1.40;;
75700;SDS011;64321;48.796;44.740;2022-11-15T04:54:26;1.35;;;0.57;;
75700;SDS011;64321;48.796;44.740;2022-11-15T04:57:10;1.63;;;0.65;;
75700;SDS011;64321;48.796;44.740;2022-11-15T04:59:55;1.30;;;0.60;;
75700;SDS011;64321;48.796;44.740;2022-11-15T05:02:39;1.52;;;0.52;;
75700;SDS011;64321;48.796;44.740;2022-11-15T05:05:41;4.07;;;0.43;;
75700;SDS011;64321;48.796;44.740;2022-11-15T05:08:26;1.90;;;0.40;;
75700;SDS011;64321;48.796;44.740;2022-11-15T05:11:10;2.20;;;0.63;;
75700;SDS011;64321;48.796;44.740;2022-11-15T05:13:55;0.98;;;0.45;;
75700;SDS011;64321;48.796;44.740;2022-11-15T05:16:39;4.35;;;0.77;;
75700;SDS011;64321;48.796;44.740;2022-11-15T05:19:23;1.63;;;0.40;;
75700;SDS011;64321;48.796;44.740;2022-11-15T05:22:07;3.47;;;0.90;;
75700;SDS011;64321;48.796;44.740;2022-11-15T05:24:52;2.58;;;0.60;;
75700;SDS011;64321;48.796;44.740;2022-11-15T05:27:36;2.28;;;0.98;;
75700;SDS011;64321;48.796;44.740;2022-11-15T05:30:20;2.97;;;0.52;;
75700;SDS011;64321;48.796;44.740;2022-11-15T05:33:05;2.67;;;0.70;;
75700;SDS011;64321;48.796;44.740;2022-11-15T05:35:57;4.55;;;1.05;;
75700;SDS011;64321;48.796;44.740;2022-11-15T05:38:43;4.10;;;0.50;;
75700;SDS011;64321;48.796;44.740;2022-11-15T05:41:34;1.38;;;0.43;;
75700;SDS011;64321;48.796;44.740;2022-11-15T05:44:19;2.85;;;0.60;;
75700;SDS011;64321;48.796;44.740;2022-11-15T05:47:05;2.60;;;0.52;;
75700;SDS011;64321;48.796;44.740;2022-11-15T05:49:50;2.22;;;0.43;;
75700;SDS011;64321;48.796;44.740;2022-11-15T05:52:35;3.63;;;0.80;;
75700;SDS011;64321;48.796;44.740;2022-11-15T05:55:20;2.25;;;0.57;;
75700;SDS011;64321;48.796;44.740;2022-11-15T05:58:05;3.97;;;0.68;;
75700;SDS011;64321;48.796;44.740;2022-11-15T06:00:49;6.00;;;1.02;;
75700;SDS011;64321;48.796;44.740;2022-11-15T06:03:33;3.70;;;0.85;;
75700;SDS011;64321;48.796;44.740;2022-11-15T06:06:17;2.90;;;0.68;;
75700;SDS011;64321;48.796;44.740;2022-11-15T06:09:01;4.95;;;1.45;;
75700;SDS011;64321;48.796;44.740;2022-11-15T06:11:46;3.78;;;1.13;;
75700;SDS011;64321;48.796;44.740;2022-11-15T06:14:31;2.47;;;0.82;;
75700;SDS011;64321;48.796;44.740;2022-11-15T06:17:15;1.85;;;0.55;;
75700;SDS011;64321;48.796;44.740;2022-11-15T06:20:00;3.42;;;0.77;;
75700;SDS011;64321;48.796;44.740;2022-11-15T06:22:44;2.47;;;0.98;;
75700;SDS011;64321;48.796;44.740;2022-11-15T06:25:29;4.88;;;0.68;;
75700;SDS011;64321;48.796;44.740;2022-11-15T06:28:13;5.30;;;1.58;;
75700;SDS011;64321;48.796;44.740;2022-11-15T06:31:04;3.50;;;0.75;;
75700;SDS011;64321;48.796;44.740;2022-11-15T06:33:48;1.77;;;0.63;;
75700;SDS011;64321;48.796;44.740;2022-11-15T06:36:36;1.50;;;0.63;;
75700;SDS011;64321;48.796;44.740;2022-11-15T06:39:21;3.45;;;0.90;;
75700;SDS011;64321;48.796;44.740;2022-11-15T06:42:05;2.88;;;0.63;;
75700;SDS011;64321;48.796;44.740;2022-11-15T06:44:49;5.32;;;0.93;;
75700;SDS011;64321;48.796;44.740;2022-11-15T06:47:33;3.63;;;1.13;;
75700;SDS011;64321;48.796;44.740;2022-11-15T06:50:18;2.95;;;0.55;;
75700;SDS011;64321;48.796;44.740;2022-11-15T06:53:05;3.17;;;0.75;;
75700;SDS011;64321;48.796;44.740;2022-11-15T06:58:33;1.52;;;0.45;;
75700;SDS011;64321;48.796;44.740;2022-11-15T07:01:17;4.20;;;1.13;;
75700;SDS011;64321;48.796;44.740;2022-11-15T07:04:01;3.03;;;0.68;;
75700;SDS011;64321;48.796;44.740;2022-11-15T07:06:46;1.10;;;0.52;;
75700;SDS011;64321;48.796;44.740;2022-11-15T07:09:31;3.80;;;0.75;;
75700;SDS011;64321;48.796;44.740;2022-11-15T07:12:15;3.05;;;0.85;;
75700;SDS011;64321;48.796;44.740;2022-11-15T07:14:59;3.20;;;1.05;;
75700;SDS011;64321;48.796;44.740;2022-11-15T07:17:44;1.73;;;0.60;;
75700;SDS011;64321;48.796;44.740;2022-11-15T07:20:28;2.22;;;0.40;;
75700;SDS011;64321;48.796;44.740;2022-11-15T07:23:13;5.15;;;0.52;;
75700;SDS011;64321;48.796;44.740;2022-11-15T07:25:57;2.22;;;0.90;;
75700;SDS011;64321;48.796;44.740;2022-11-15T07:28:42;3.92;;;0.65;;
75700;SDS011;64321;48.796;44.740;2022-11-15T07:31:26;3.28;;;0.60;;
75700;SDS011;64321;48.796;44.740;2022-11-15T07:34:23;1.90;;;0.63;;
75700;SDS011;64321;48.796;44.740;2022-11-15T07:37:08;1.77;;;0.40;;
75700;SDS011;64321;48.796;44.740;2022-11-15T07:39:53;3.30;;;0.50;;
75700;SDS011;64321;48.796;44.740;2022-11-15T07:42:38;0.93;;;0.52;;
75700;SDS011;64321;48.796;44.740;2022-11-15T07:45:41;1.38;;;0.32;;
75700;SDS011;64321;48.796;44.740;2022-11-15T07:48:25;1.05;;;0.32;;
75700;SDS011;64321;48.796;44.740;2022-11-15T07:51:13;1.30;;;0.43;;
75700;SDS011;64321;48.796;44.740;2022-11-15T07:53:58;0.80;;;0.47;;
75700;SDS011;64321;48.796;44.740;2022-11-15T07:56:42;3.38;;;0.45;;
75700;SDS011;64321;48.796;44.740;2022-11-15T07:59:26;3.38;;;0.52;;
75700;SDS011;64321;48.796;44.740;2022-11-15T08:02:11;2.03;;;0.52;;
75700;SDS011;64321;48.796;44.740;2022-11-15T08:04:55;1.67;;;0.32;;
75700;SDS011;64321;48.796;44.740;2022-11-15T08:07:39;4.22;;;0.63;;
75700;SDS011;64321;48.796;44.740;2022-11-15T08:10:24;4.70;;;1.15;;
75700;SDS011;64321;48.796;44.740;2022-11-15T08:13:09;3.40;;;0.88;;
75700;SDS011;64321;48.796;44.740;2022-11-15T08:16:02;3.25;;;1.48;;
75700;SDS011;64321;48.796;44.740;2022-11-15T08:18:49;2.78;;;0.68;;
75700;SDS011;64321;48.796;44.740;2022-11-15T08:21:33;5.15;;;1.63;;
75700;SDS011;64321;48.796;44.740;2022-11-15T08:24:17;3.78;;;0.80;;
75700;SDS011;64321;48.796;44.740;2022-11-15T08:27:01;4.68;;;0.75;;
75700;SDS011;64321;48.796;44.740;2022-11-15T08:29:47;5.78;;;1.13;;
75700;SDS011;64321;48.796;44.740;2022-11-15T08:32:32;2.20;;;0.45;;
75700;SDS011;64321;48.796;44.740;2022-11-15T08:35:16;3.78;;;0.65;;
75700;SDS011;64321;48.796;44.740;2022-11-15T08:38:00;2.67;;;0.73;;
75700;SDS011;64321;48.796;44.740;2022-11-15T08:40:44;2.67;;;0.82;;
75700;SDS011;64321;48.796;44.740;2022-11-15T08:43:29;2.50;;;0.63;;
75700;SDS011;64321;48.796;44.740;2022-11-15T08:46:13;6.35;;;1.35;;
75700;SDS011;64321;48.796;44.740;2022-11-15T08:48:57;1.35;;;0.52;;
75700;SDS011;64321;48.796;44.740;2022-11-15T08:51:42;2.45;;;0.52;;
75700;SDS011;64321;48.796;44.740;2022-11-15T08:54:26;2.22;;;0.32;;
75700;SDS011;64321;48.796;44.740;2022-11-15T08:57:11;2.70;;;0.93;;
75700;SDS011;64321;48.796;44.740;2022-11-15T08:59:55;4.43;;;0.63;;
75700;SDS011;64321;48.796;44.740;2022-11-15T09:02:40;2.45;;;0.50;;
75700;SDS011;64321;48.796;44.740;2022-11-15T09:05:24;1.83;;;0.60;;
75700;SDS011;64321;48.796;44.740;2022-11-15T09:08:09;2.58;;;0.45;;
75700;SDS011;64321;48.796;44.740;2022-11-15T09:10:53;1.55;;;0.43;;
75700;SDS011;64321;48.796;44.740;2022-11-15T09:13:37;2.55;;;0.57;;
75700;SDS011;64321;48.796;44.740;2022-11-15T09:16:22;3.20;;;1.27;;
75700;SDS011;64321;48.796;44.740;2022-11-15T09:19:08;1.80;;;0.65;;
75700;SDS011;64321;48.796;44.740;2022-11-15T09:21:52;1.70;;;0.52;;
75700;SDS011;64321;48.796;44.740;2022-11-15T09:24:37;2.95;;;0.60;;
75700;SDS011;64321;48.796;44.740;2022-11-15T09:27:21;2.83;;;0.55;;
75700;SDS011;64321;48.796;44.740;2022-11-15T09:30:05;1.95;;;0.52;;
75700;SDS011;64321;48.796;44.740;2022-11-15T09:32:50;4.68;;;1.13;;
75700;SDS011;64321;48.796;44.740;2022-11-15T09:35:34;0.57;;;0.30;;
75700;SDS011;64321;48.796;44.740;2022-11-15T09:38:27;2.25;;;0.77;;
75700;SDS011;64321;48.796;44.740;2022-11-15T09:44:04;3.10;;;0.43;;
75700;SDS011;64321;48.796;44.740;2022-11-15T09:47:00;1.55;;;0.45;;
75700;SDS011;64321;48.796;44.740;2022-11-15T09:49:58;2.50;;;0.52;;
75700;SDS011;64321;48.796;44.740;2022-11-15T09:52:31;3.50;;;0.90;;
75700;SDS011;64321;48.796;44.740;2022-11-15T09:54:59;1.63;;;0.50;;
75700;SDS011;64321;48.796;44.740;2022-11-15T10:00:22;3.35;;;0.70;;
75700;SDS011;64321;48.796;44.740;2022-11-15T10:05:40;2.17;;;0.50;;
75700;SDS011;64321;48.796;44.740;2022-11-15T10:11:34;1.50;;;0.43;;
75700;SDS011;64321;48.796;44.740;2022-11-15T10:13:43;1.20;;;0.45;;
75700;SDS011;64321;48.796;44.740;2022-11-15T10:24:00;1.80;;;0.63;;
75700;SDS011;64321;48.796;44.740;2022-11-15T10:26:26;3.50;;;0.60;;
75700;SDS011;64321;48.796;44.740;2022-11-15T10:28:53;1.20;;;0.32;;
75700;SDS011;64321;48.796;44.740;2022-11-15T10:31:23;4.57;;;0.45;;
75700;SDS011;64321;48.796;44.740;2022-11-15T10:33:49;1.17;;;0.80;;
75700;SDS011;64321;48.796;44.740;2022-11-15T10:36:19;2.70;;;0.63;;
75700;SDS011;64321;48.796;44.740;2022-11-15T10:41:18;4.35;;;0.60;;
75700;SDS011;64321;48.796;44.740;2022-11-15T10:43:45;3.13;;;0.73;;
75700;SDS011;64321;48.796;44.740;2022-11-15T10:46:21;1.17;;;0.30;;
75700;SDS011;64321;48.796;44.740;2022-11-15T10:48:47;1.20;;;0.35;;
75700;SDS011;64321;48.796;44.740;2022-11-15T10:51:21;3.25;;;0.55;;
75700;SDS011;64321;48.796;44.740;2022-11-15T10:53:47;2.83;;;0.52;;
75700;SDS011;64321;48.796;44.740;2022-11-15T10:56:14;1.42;;;0.60;;
75700;SDS011;64321;48.796;44.740;2022-11-15T10:58:44;3.20;;;0.75;;
75700;SDS011;64321;48.796;44.740;2022-11-15T11:01:14;1.55;;;0.32;;
75700;SDS011;64321;48.796;44.740;2022-11-15T11:03:41;0.80;;;0.38;;
75700;SDS011;64321;48.796;44.740;2022-11-15T11:06:11;1.17;;;0.30;;
75700;SDS011;64321;48.796;44.740;2022-11-15T11:08:37;2.45;;;0.52;;
75700;SDS011;64321;48.796;44.740;2022-11-15T11:11:03;1.17;;;0.57;;
75700;SDS011;64321;48.796;44.740;2022-11-15T11:21:26;3.00;;;0.70;;
75700;SDS011;64321;48.796;44.740;2022-11-15T11:24:14;3.17;;;0.80;;
75700;SDS011;64321;48.796;44.740;2022-11-15T11:26:48;0.90;;;0.40;;
75700;SDS011;64321;48.796;44.740;2022-11-15T11:29:26;5.13;;;0.63;;
75700;SDS011;64321;48.796;44.740;2022-11-15T11:31:59;2.03;;;0.52;;
75700;SDS011;64321;48.796;44.740;2022-11-15T11:42:40;1.23;;;0.35;;
75700;SDS011;64321;48.796;44.740;2022-11-15T11:47:46;2.25;;;0.63;;
75700;SDS011;64321;48.796;44.740;2022-11-15T11:50:19;2.95;;;0.52;;
75700;SDS011;64321;48.796;44.740;2022-11-15T11:53:32;1.67;;;0.40;;
75700;SDS011;64321;48.796;44.740;2022-11-15T11:55:49;2.35;;;0.52;;
75700;SDS011;64321;48.796;44.740;2022-11-15T11:58:24;1.60;;;0.52;;
75700;SDS011;64321;48.796;44.740;2022-11-15T12:00:56;2.65;;;0.43;;
75700;SDS011;64321;48.796;44.740;2022-11-15T12:03:28;1.02;;;0.30;;
75700;SDS011;64321;48.796;44.740;2022-11-15T12:05:58;2.38;;;0.63;;
75700;SDS011;64321;48.796;44.740;2022-11-15T12:11:10;2.45;;;0.68;;
75700;SDS011;64321;48.796;44.740;2022-11-15T12:13:37;2.35;;;0.55;;
75700;SDS011;64321;48.796;44.740;2022-11-15T12:16:17;3.15;;;0.50;;
75700;SDS011;64321;48.796;44.740;2022-11-15T12:21:14;4.22;;;0.60;;
75700;SDS011;64321;48.796;44.740;2022-11-15T12:23:50;1.20;;;0.43;;
75700;SDS011;64321;48.796;44.740;2022-11-15T12:26:19;2.95;;;0.52;;
75700;SDS011;64321;48.796;44.740;2022-11-15T12:31:13;2.88;;;0.57;;
75700;SDS011;64321;48.796;44.740;2022-11-15T12:33:45;1.15;;;0.40;;
75700;SDS011;64321;48.796;44.740;2022-11-15T12:36:12;2.60;;;0.88;;
75700;SDS011;64321;48.796;44.740;2022-11-15T12:39:02;2.17;;;0.57;;
75700;SDS011;64321;48.796;44.740;2022-11-15T12:41:32;3.03;;;0.43;;
75700;SDS011;64321;48.796;44.740;2022-11-15T12:43:58;4.57;;;0.93;;
75700;SDS011;64321;48.796;44.740;2022-11-15T12:59:53;3.88;;;0.70;;
75700;SDS011;64321;48.796;44.740;2022-11-15T13:04:46;1.98;;;0.60;;
75700;SDS011;64321;48.796;44.740;2022-11-15T13:09:56;2.70;;;0.50;;
75700;SDS011;64321;48.796;44.740;2022-11-15T13:14:52;4.65;;;1.35;;
75700;SDS011;64321;48.796;44.740;2022-11-15T13:19:44;3.33;;;0.90;;
75700;SDS011;64321;48.796;44.740;2022-11-15T13:22:11;4.53;;;1.00;;
75700;SDS011;64321;48.796;44.740;2022-11-15T13:24:55;5.50;;;0.95;;
75700;SDS011;64321;48.796;44.740;2022-11-15T13:27:21;2.92;;;0.60;;
75700;SDS011;64321;48.796;44.740;2022-11-15T13:29:46;4.07;;;0.88;;
75700;SDS011;64321;48.796;44.740;2022-11-15T13:32:13;3.70;;;0.77;;
75700;SDS011;64321;48.796;44.740;2022-11-15T13:34:39;2.58;;;0.82;;
75700;SDS011;64321;48.796;44.740;2022-11-15T13:37:51;4.03;;;0.88;;
75700;SDS011;64321;48.796;44.740;2022-11-15T13:42:43;6.95;;;1.38;;
75700;SDS011;64321;48.796;44.740;2022-11-15T13:45:12;8.27;;;2.42;;
75700;SDS011;64321;48.796;44.740;2022-11-15T13:47:38;10.65;;;3.60;;
75700;SDS011;64321;48.796;44.740;2022-11-15T13:50:04;10.85;;;3.00;;
75700;SDS011;64321;48.796;44.740;2022-11-15T13:52:34;9.57;;;2.58;;
75700;SDS011;64321;48.796;44.740;2022-11-15T13:55:03;11.30;;;2.70;;
75700;SDS011;64321;48.796;44.740;2022-11-15T14:00:05;10.68;;;2.22;;
75700;SDS011;64321;48.796;44.740;2022-11-15T14:02:37;10.52;;;2.67;;
75700;SDS011;64321;48.796;44.740;2022-11-15T14:05:14;12.40;;;3.15;;
75700;SDS011;64321;48.796;44.740;2022-11-15T14:07:44;11.95;;;2.55;;
75700;SDS011;64321;48.796;44.740;2022-11-15T14:10:38;10.73;;;3.05;;
75700;SDS011;64321;48.796;44.740;2022-11-15T14:13:04;12.02;;;3.20;;
75700;SDS011;64321;48.796;44.740;2022-11-15T14:15:32;8.35;;;2.83;;
75700;SDS011;64321;48.796;44.740;2022-11-15T14:17:58;13.23;;;2.30;;
75700;SDS011;64321;48.796;44.740;2022-11-15T14:20:38;6.05;;;1.95;;
75700;SDS011;64321;48.796;44.740;2022-11-15T14:23:25;8.93;;;2.72;;
75700;SDS011;64321;48.796;44.740;2022-11-15T14:25:57;12.05;;;3.25;;
75700;SDS011;64321;48.796;44.740;2022-11-15T14:30:49;22.17;;;8.52;;
75700;SDS011;64321;48.796;44.740;2022-11-15T14:35:48;17.70;;;5.32;;
75700;SDS011;64321;48.796;44.740;2022-11-15T14:38:14;14.00;;;3.63;;
75700;SDS011;64321;48.796;44.740;2022-11-15T14:40:40;12.20;;;3.00;;
75700;SDS011;64321;48.796;44.740;2022-11-15T14:43:07;10.85;;;3.35;;
75700;SDS011;64321;48.796;44.740;2022-11-15T14:45:35;10.95;;;3.33;;
75700;SDS011;64321;48.796;44.740;2022-11-15T14:48:00;10.30;;;3.60;;
75700;SDS011;64321;48.796;44.740;2022-11-15T14:50:26;11.75;;;3.55;;
75700;SDS011;64321;48.796;44.740;2022-11-15T14:52:53;10.38;;;3.40;;
75700;SDS011;64321;48.796;44.740;2022-11-15T14:57:44;10.65;;;3.60;;
75700;SDS011;64321;48.796;44.740;2022-11-15T15:00:11;12.32;;;4.10;;
75700;SDS011;64321;48.796;44.740;2022-11-15T15:02:41;15.60;;;4.03;;
75700;SDS011;64321;48.796;44.740;2022-11-15T15:07:41;10.65;;;3.30;;
75700;SDS011;64321;48.796;44.740;2022-11-15T15:10:07;12.18;;;3.15;;
75700;SDS011;64321;48.796;44.740;2022-11-15T15:12:33;7.28;;;2.50;;
75700;SDS011;64321;48.796;44.740;2022-11-15T15:14:59;9.25;;;2.17;;
75700;SDS011;64321;48.796;44.740;2022-11-15T15:17:25;6.70;;;2.22;;
75700;SDS011;64321;48.796;44.740;2022-11-15T15:19:50;10.88;;;2.33;;
75700;SDS011;64321;48.796;44.740;2022-11-15T15:22:17;11.45;;;2.58;;
75700;SDS011;64321;48.796;44.740;2022-11-15T15:24:43;7.20;;;2.10;;
75700;SDS011;64321;48.796;44.740;2022-11-15T15:27:09;9.85;;;2.38;;
75700;SDS011;64321;48.796;44.740;2022-11-15T15:29:35;10.23;;;2.63;;
75700;SDS011;64321;48.796;44.740;2022-11-15T15:32:00;11.48;;;2.95;;
75700;SDS011;64321;48.796;44.740;2022-11-15T15:34:26;21.40;;;5.28;;
75700;SDS011;64321;48.796;44.740;2022-11-15T15:39:36;23.17;;;6.03;;
75700;SDS011;64321;48.796;44.740;2022-11-15T15:42:02;19.83;;;6.88;;
75700;SDS011;64321;48.796;44.740;2022-11-15T15:44:29;21.50;;;8.73;;
75700;SDS011;64321;48.796;44.740;2022-11-15T15:46:54;19.00;;;6.15;;
75700;SDS011;64321;48.796;44.740;2022-11-15T15:49:20;20.23;;;8.18;;
75700;SDS011;64321;48.796;44.740;2022-11-15T15:51:46;30.33;;;9.43;;
75700;SDS011;64321;48.796;44.740;2022-11-15T15:54:12;22.83;;;9.07;;
75700;SDS011;64321;48.796;44.740;2022-11-15T15:56:37;28.52;;;8.75;;
75700;SDS011;64321;48.796;44.740;2022-11-15T15:59:03;21.52;;;8.32;;
75700;SDS011;64321;48.796;44.740;2022-11-15T16:01:29;23.27;;;8.15;;
75700;SDS011;64321;48.796;44.740;2022-11-15T16:03:54;22.42;;;8.68;;
75700;SDS011;64321;48.796;44.740;2022-11-15T16:06:36;17.58;;;8.48;;
75700;SDS011;64321;48.796;44.740;2022-11-15T16:09:03;17.27;;;7.55;;
75700;SDS011;64321;48.796;44.740;2022-11-15T16:11:29;16.17;;;6.60;;
75700;SDS011;64321;48.796;44.740;2022-11-15T16:13:55;20.65;;;5.20;;
75700;SDS011;64321;48.796;44.740;2022-11-15T16:16:21;15.88;;;6.07;;
75700;SDS011;64321;48.796;44.740;2022-11-15T16:18:47;13.13;;;4.78;;
75700;SDS011;64321;48.796;44.740;2022-11-15T16:21:13;12.98;;;5.45;;
75700;SDS011;64321;48.796;44.740;2022-11-15T16:23:38;15.90;;;4.80;;
75700;SDS011;64321;48.796;44.740;2022-11-15T16:26:17;14.75;;;4.70;;
75700;SDS011;64321;48.796;44.740;2022-11-15T16:28:43;10.60;;;4.05;;
75700;SDS011;64321;48.796;44.740;2022-11-15T16:31:09;10.82;;;4.00;;
75700;SDS011;64321;48.796;44.740;2022-11-15T16:33:36;11.45;;;4.18;;
75700;SDS011;64321;48.796;44.740;2022-11-15T16:36:02;11.52;;;3.95;;
75700;SDS011;64321;48.796;44.740;2022-11-15T16:38:28;9.25;;;2.88;;
75700;SDS011;64321;48.796;44.740;2022-11-15T16:40:54;9.70;;;3.17;;
75700;SDS011;64321;48.796;44.740;2022-11-15T16:43:20;10.80;;;4.15;;
75700;SDS011;64321;48.796;44.740;2022-11-15T16:45:45;10.05;;;3.40;;
75700;SDS011;64321;48.796;44.740;2022-11-15T16:48:26;9.52;;;2.83;;
75700;SDS011;64321;48.796;44.740;2022-11-15T16:50:56;9.10;;;2.78;;
75700;SDS011;64321;48.796;44.740;2022-11-15T16:53:22;11.57;;;3.03;;
75700;SDS011;64321;48.796;44.740;2022-11-15T16:55:48;9.82;;;3.28;;
75700;SDS011;64321;48.796;44.740;2022-11-15T16:58:14;11.65;;;2.70;;
75700;SDS011;64321;48.796;44.740;2022-11-15T17:00:39;14.45;;;3.30;;
75700;SDS011;64321;48.796;44.740;2022-11-15T17:03:05;10.60;;;3.55;;
75700;SDS011;64321;48.796;44.740;2022-11-15T17:05:31;10.65;;;3.40;;
75700;SDS011;64321;48.796;44.740;2022-11-15T17:07:57;12.70;;;4.45;;
75700;SDS011;64321;48.796;44.740;2022-11-15T17:10:23;14.45;;;4.25;;
75700;SDS011;64321;48.796;44.740;2022-11-15T17:12:49;10.13;;;3.72;;
75700;SDS011;64321;48.796;44.740;2022-11-15T17:15:15;12.35;;;4.25;;
75700;SDS011;64321;48.796;44.740;2022-11-15T17:17:41;12.55;;;4.05;;
75700;SDS011;64321;48.796;44.740;2022-11-15T17:20:14;13.55;;;5.28;;
75700;SDS011;64321;48.796;44.740;2022-11-15T17:22:40;13.45;;;4.65;;
75700;SDS011;64321;48.796;44.740;2022-11-15T17:25:06;12.95;;;4.10;;
75700;SDS011;64321;48.796;44.740;2022-11-15T17:27:32;14.10;;;5.22;;
75700;SDS011;64321;48.796;44.740;2022-11-15T17:29:58;14.77;;;5.05;;
75700;SDS011;64321;48.796;44.740;2022-11-15T17:32:23;16.20;;;4.47;;
75700;SDS011;64321;48.796;44.740;2022-11-15T17:34:49;13.55;;;4.38;;
75700;SDS011;64321;48.796;44.740;2022-11-15T17:37:15;10.50;;;3.75;;
75700;SDS011;64321;48.796;44.740;2022-11-15T17:39:40;13.57;;;4.53;;
75700;SDS011;64321;48.796;44.740;2022-11-15T17:42:06;14.00;;;4.03;;
75700;SDS011;64321;48.796;44.740;2022-11-15T17:44:32;17.92;;;4.93;;
75700;SDS011;64321;48.796;44.740;2022-11-15T17:46:58;12.55;;;4.93;;